MET'MAP v2.0
soon released !

Expected late october,
this new version will be
more efficient, smarter,
and hosted on a brand new
server x3 powerfull...
...and still free !


Not compatible ?
Try the mobile version !

LOG IN : | Subscribe | Disclaimer | Who is Orbifly ? |
ICAO code :

TAF - EPKS Poznan-Krzesiny - 03 Apr 2020 22:14 UTC - Data Source NOAA   


- Airport Elevation : 265 ft
- No reported NOTAMs.


EPKS - Poznan-Krzesiny

NO METAR
TAF TAF EPKS
Valid from the 03 at 18:00 until the 04 at 03:00 UTC


031700Z 0318/0403 28010KT CAVOK
PROB30
TEMPO 0318/0320 28015G25KT -SHRA SCT030TCU

Source NOAA


MET'MAP, your aeronautical weather chart ! - Copyright ORBIFLY December 2007

Programming & Development : Alexandra Zaïnal
Co-Developer : Marc-Olivier Méhu
Technical & hardware support : Manuel Goepfert
Concept & Financing : Baudouin d'Aumeries